Wilmerding, Pennsylvania
Current Conditions -  °F | °C
As of 3:53 PM on Monday 22 Dec 2014 (Local Time) from KAGC Reporting Station
Clear Clear  
Wind Chill: 39°   Ceiling: Unl
Heat Index: 44°   Visibility: 8mi
Dew Point: 28°   Wind: 9mph
Humidity: 53%   Direction: 110°ESE
Pressure: 29.97"   Gusts: NA
Location:  40.39°N, 79.81°W
Report Text: KAGC 222053Z AUTO 11008KT 8SM CLR 07/M02 A2997 RMK AO2 SLP163 T00671022 58019 TSNO
Loading
Personal Weather Stations






























Interactive Weather Map New forecast layout! Learn more

10-Day Weather Forecast

Advertisements
Track Severe Weather on mobile